09:52
Airports
Links
Donate
Help keep this website running!
PayPal
Bitcoin
METAR
CYSB 180900Z 13011KT 3/4SM R22/4000V5500FT/D -SN VV004 M02/M03 A2959 RMK SN8 /S03/ SLP040
Current Weather Conditions at CYSB
LIFR 09:00:00 18-11-17
Altimeter:29.59 hg
Temp:-2.0°c 28°f
Dew point:-3.0°c 27°f
Wind:11 knots, 12.7 mph, 6 m/s, from 130°
Visibility:0.75 statute miles
0(OVX)
Past METAR reports
LIFR 08:00:00 18-11-17
Altimeter:29.63 hg
Temp:-2.0°c 28°f
Dew point:-3.0°c 27°f
Wind:11 knots, 12.7 mph, 6 m/s, from 120°
Visibility:1.5 statute miles
0(OVX)
CYSB 180800Z CCA 12011KT 1 1/2SM -SN VV008 M02/M03 A2963 RMK SN8 /S01/ SLP054
IFR 07:47:00 18-11-17
Altimeter:29.64 hg
Temp:-2.0°c 28°f
Dew point:-3.0°c 27°f
Wind:9 knots, 10.4 mph, 5 m/s, from 120°
Visibility:2.0 statute miles
700(OVC) Overcast
CYSB 180747Z 12009G17KT 2SM -SN OVC007 M02/M03 A2964 RMK SN6SC2 SLP056
IFR 07:00:00 18-11-17
Altimeter:29.65 hg
Temp:-3.0°c 27°f
Dew point:-4.0°c 25°f
Wind:12 knots, 13.8 mph, 6 m/s, from 130°
Visibility:4.0 statute miles
900(OVC) Overcast
CYSB 180700Z 13012KT 4SM -SN OVC009 M03/M04 A2965 RMK SC8 SLP063
MVFR 06:00:00 18-11-17
Altimeter:29.68 hg
Temp:-3.0°c 27°f
Dew point:-5.0°c 23°f
Wind:12 knots, 13.8 mph, 6 m/s, from 140°
Visibility:4.0 statute miles
1200(OVC) Overcast
CYSB 180600Z 14012G18KT 4SM -SN OVC012 M03/M05 A2968 RMK SC8 SLP073
MVFR 05:00:00 18-11-17
Altimeter:29.72 hg
Temp:-3.0°c 27°f
Dew point:-6.0°c 21°f
Wind:13 knots, 15 mph, 7 m/s, from 120°
Visibility:6.0 statute miles
1300(OVC) Overcast
CYSB 180500Z 12013KT 6SM -SN OVC013 M03/M06 A2972 RMK SC8 PRESFR SLP085
MVFR 04:48:00 18-11-17
Altimeter:29.73 hg
Temp:-3.0°c 27°f
Dew point:-7.0°c 19°f
Wind:11 knots, 12.7 mph, 6 m/s, from 120°
Visibility:8.0 statute miles
1400(OVC) Overcast
CYSB 180448Z 12011KT 8SM -SN OVC014 M03/M07 A2973 RMK SC8 PRESFR SLP090
TAF
TAF CYSB 180738Z 1808/1820 13012KT 3/4SM -SN VV005 TEMPO 1808/1813 2SM -SN OVC010 FM181300 11010KT 11/2SM -SN BR OVC004 TEMPO 1813/1820 6SM -SN OVC006 BECMG 1816/1818 06008KT RMK NXT FCST BY 181400Z
Forecast at CYSB
08:00 18-11-17 to 13:00 18-11-17
-SN
Wind:12 Knots from 130°
Visibility:0.75 statute miles
OVX
TEMPO 08:00 18-11-17 to 13:00 18-11-17
-SN
Visibility:2.0 statute miles
1000OVC Overcast
FM 13:00 18-11-17 to 16:00 18-11-17
-SN BR
Wind:10 Knots from 110°
Visibility:1.5 statute miles
400OVC Overcast
TEMPO 13:00 18-11-17 to 20:00 18-11-17
-SN
Visibility:6.0 statute miles
600OVC Overcast
BECMG 16:00 18-11-17 to 20:00 18-11-17
-SN BR
Wind:8 Knots from 60°
Visibility:1.5 statute miles
400OVC Overcast